Time;durP1;ratioP1;P1;durP2;ratioP2;P2;SDS_P1;SDS_P2;PMS_P1;PMS_P2;Temp;Humidity;BMP_temperature;BMP_pressure;BME280_temperature;BME280_humidity;BME280_pressure;Samples;Min_cycle;Max_cycle;Signal;HPM_P1;HPM_P2
2021/01/17 00:00:09;;;;;;;15.47;11.57;;;5.70;52.80;;;;;;5025766;28;20436;-42
2021/01/17 00:02:35;;;;;;;14.37;11.43;;;5.60;52.70;;;;;;5029116;28;20440;-42
2021/01/17 00:05:01;;;;;;;13.83;10.10;;;5.70;52.80;;;;;;5028254;28;20449;-42
2021/01/17 00:07:30;;;;;;;18.30;11.83;;;5.60;53.30;;;;;;5019031;28;20193;-42
2021/01/17 00:09:56;;;;;;;15.33;11.07;;;5.60;53.00;;;;;;5027406;28;20201;-42
2021/01/17 00:12:22;;;;;;;17.07;11.80;;;5.60;53.10;;;;;;5029669;28;20428;-42
2021/01/17 00:14:47;;;;;;;18.60;12.50;;;5.60;53.50;;;;;;5018293;28;20557;-42
2021/01/17 00:17:13;;;;;;;16.73;11.97;;;5.60;53.40;;;;;;5030232;28;20439;-42
2021/01/17 00:19:39;;;;;;;18.43;12.00;;;5.60;53.60;;;;;;5029827;28;20681;-42
2021/01/17 00:22:04;;;;;;;16.87;11.87;;;5.50;53.90;;;;;;5029560;28;20197;-42
2021/01/17 00:24:30;;;;;;;18.60;12.60;;;5.60;53.90;;;;;;5029460;28;20197;-42
2021/01/17 00:26:55;;;;;;;16.73;11.17;;;5.60;54.40;;;;;;5021724;28;20696;-42
2021/01/17 00:29:21;;;;;;;19.10;12.70;;;5.60;54.00;;;;;;5029098;28;20235;-42
2021/01/17 00:31:49;;;;;;;17.23;12.13;;;5.50;54.10;;;;;;5026021;28;20287;-42
2021/01/17 00:34:14;;;;;;;18.93;12.63;;;5.50;54.40;;;;;;5025220;28;20296;-42
2021/01/17 00:36:40;;;;;;;18.77;12.70;;;5.40;54.50;;;;;;5019911;28;20531;-42
2021/01/17 00:39:07;;;;;;;19.77;12.50;;;5.30;54.80;;;;;;5029175;28;20703;-42
2021/01/17 00:41:34;;;;;;;17.67;12.30;;;5.30;54.90;;;;;;5029940;28;20198;-42
2021/01/17 00:43:59;;;;;;;20.40;11.53;;;5.20;55.00;;;;;;5025855;28;20451;-42
2021/01/17 00:46:25;;;;;;;19.43;12.03;;;5.20;55.40;;;;;;5030171;28;20526;-42
2021/01/17 00:48:51;;;;;;;18.60;11.83;;;5.10;55.40;;;;;;5025653;28;20218;-42
2021/01/17 00:51:17;;;;;;;19.53;12.93;;;5.20;55.40;;;;;;5023325;28;20189;-42
2021/01/17 00:53:43;;;;;;;21.03;13.27;;;5.20;55.30;;;;;;5026584;28;20644;-42
2021/01/17 00:56:08;;;;;;;21.77;13.20;;;5.00;55.60;;;;;;5029272;28;20444;-42
2021/01/17 00:58:34;;;;;;;17.37;12.30;;;5.00;55.80;;;;;;5024511;28;20648;-42
2021/01/17 01:00:59;;;;;;;17.80;12.93;;;4.90;55.90;;;;;;5022566;28;20243;-42
2021/01/17 01:03:25;;;;;;;16.60;11.77;;;4.70;56.30;;;;;;5021801;28;20199;-42
2021/01/17 01:05:51;;;;;;;20.47;12.80;;;4.50;56.60;;;;;;5029874;28;20228;-42
2021/01/17 01:08:17;;;;;;;17.23;11.90;;;4.50;57.00;;;;;;5027988;28;20458;-42
2021/01/17 01:10:42;;;;;;;19.13;13.63;;;4.60;57.00;;;;;;5019433;28;20723;-42
2021/01/17 01:13:08;;;;;;;17.67;11.90;;;4.40;57.10;;;;;;5015686;28;20189;-42
2021/01/17 01:15:33;;;;;;;19.37;12.40;;;4.20;57.80;;;;;;5027687;28;20247;-42
2021/01/17 01:17:59;;;;;;;19.33;13.13;;;4.10;57.90;;;;;;5028266;28;20193;-42
2021/01/17 01:20:25;;;;;;;19.57;12.90;;;4.00;58.20;;;;;;5017494;28;20197;-42
2021/01/17 01:22:50;;;;;;;18.83;12.67;;;3.90;59.10;;;;;;5024757;28;20558;-42
2021/01/17 01:25:16;;;;;;;21.47;14.27;;;4.00;58.80;;;;;;5021612;28;20225;-42
2021/01/17 01:27:48;;;;;;;18.17;13.00;;;3.90;58.70;;;;;;5023723;28;20197;-42
2021/01/17 01:30:14;;;;;;;19.77;13.23;;;3.90;58.80;;;;;;5028232;28;20211;-42
2021/01/17 01:32:41;;;;;;;18.77;12.27;;;4.10;58.80;;;;;;5027089;28;20443;-42
2021/01/17 01:35:07;;;;;;;20.43;13.97;;;4.10;58.50;;;;;;5029914;28;20450;-42
2021/01/17 01:37:36;;;;;;;21.83;13.70;;;4.10;58.60;;;;;;5027653;28;20832;-43
2021/01/17 01:40:04;;;;;;;18.37;12.87;;;4.10;58.70;;;;;;5029673;28;20456;-42
2021/01/17 01:42:29;;;;;;;20.73;13.80;;;4.00;58.70;;;;;;5016930;28;20424;-42
2021/01/17 01:44:55;;;;;;;21.57;14.37;;;4.10;58.70;;;;;;5019193;28;20506;-42
2021/01/17 01:47:29;;;;;;;21.77;14.57;;;3.70;59.10;;;;;;5028584;28;20837;-41
2021/01/17 01:49:55;;;;;;;24.33;14.07;;;3.80;59.80;;;;;;5028912;28;20221;-42
2021/01/17 01:52:21;;;;;;;20.80;13.83;;;3.50;59.70;;;;;;5028701;28;20467;-42
2021/01/17 01:54:47;;;;;;;24.40;14.73;;;3.70;60.60;;;;;;5032252;28;20482;-42
2021/01/17 01:57:13;;;;;;;23.33;14.80;;;3.90;59.90;;;;;;5030793;28;20197;-42
2021/01/17 01:59:39;;;;;;;19.07;12.50;;;4.00;59.30;;;;;;5025609;28;20469;-42
2021/01/17 02:02:07;;;;;;;19.47;14.33;;;4.00;59.20;;;;;;5030224;28;20437;-42
2021/01/17 02:04:38;;;;;;;22.07;14.67;;;4.00;59.10;;;;;;5030752;28;20254;-42
2021/01/17 02:07:37;;;;;;;19.90;13.53;;;4.30;58.80;;;;;;5029811;28;20537;-42
2021/01/17 02:10:03;;;;;;;22.37;13.73;;;4.10;58.80;;;;;;5031874;28;20475;-42
2021/01/17 02:12:46;;;;;;;24.13;13.70;;;4.10;59.10;;;;;;5031890;28;20988;-42
2021/01/17 02:15:33;;;;;;;24.17;14.60;;;4.20;58.90;;;;;;5032542;28;20440;-42
2021/01/17 02:18:04;;;;;;;20.33;14.13;;;4.20;58.70;;;;;;5022287;28;20444;-42
2021/01/17 02:20:31;;;;;;;27.10;16.80;;;4.20;58.80;;;;;;5036311;28;21005;-43
2021/01/17 02:23:00;;;;;;;23.03;15.77;;;4.20;58.60;;;;;;5031841;28;20523;-42
2021/01/17 02:25:31;;;;;;;21.60;14.50;;;4.30;58.70;;;;;;5031001;28;20479;-42
2021/01/17 02:27:59;;;;;;;24.23;15.07;;;4.40;58.40;;;;;;5030154;28;20443;-42
2021/01/17 02:30:28;;;;;;;22.60;14.60;;;4.50;58.30;;;;;;5031683;28;20439;-41
2021/01/17 02:33:07;;;;;;;24.10;14.37;;;4.40;58.00;;;;;;5033903;28;20429;-42
2021/01/17 02:35:35;;;;;;;26.67;16.17;;;4.50;58.20;;;;;;5032205;28;20518;-42
2021/01/17 02:38:09;;;;;;;25.30;15.43;;;4.60;58.10;;;;;;5024565;28;20491;-42
2021/01/17 02:40:55;;;;;;;20.60;15.57;;;4.70;58.10;;;;;;5031535;28;20442;-42
2021/01/17 02:43:26;;;;;;;25.30;16.33;;;4.40;58.30;;;;;;5021749;28;20440;-42
2021/01/17 02:45:51;;;;;;;24.40;16.77;;;4.30;58.50;;;;;;5019345;28;20522;-42
2021/01/17 02:48:17;;;;;;;21.97;15.83;;;4.40;58.40;;;;;;5031342;28;20813;-42
2021/01/17 02:50:42;;;;;;;25.83;14.80;;;3.90;59.00;;;;;;5031488;28;20204;-42
2021/01/17 02:53:15;;;;;;;24.27;13.90;;;3.70;59.80;;;;;;5029940;28;20241;-42
2021/01/17 02:55:41;;;;;;;23.57;14.93;;;3.80;59.70;;;;;;5027048;28;20202;-41
2021/01/17 02:58:08;;;;;;;21.87;14.30;;;3.50;60.30;;;;;;5024908;28;20507;-41
2021/01/17 03:00:37;;;;;;;20.70;14.30;;;3.60;60.70;;;;;;5029094;28;20448;-42
2021/01/17 03:03:05;;;;;;;22.40;15.40;;;3.70;60.70;;;;;;5031353;28;20462;-42
2021/01/17 03:05:31;;;;;;;21.70;14.30;;;3.70;60.20;;;;;;5029401;28;20974;-42
2021/01/17 03:07:57;;;;;;;21.57;13.87;;;3.70;59.70;;;;;;5030724;28;20603;-42
2021/01/17 03:10:24;;;;;;;20.03;13.13;;;3.80;59.60;;;;;;5030164;28;20905;-42
2021/01/17 03:12:52;;;;;;;19.97;13.20;;;3.70;59.80;;;;;;5030498;28;20193;-42
2021/01/17 03:15:18;;;;;;;20.67;14.27;;;3.70;59.50;;;;;;5025979;28;20456;-42
2021/01/17 03:17:44;;;;;;;18.47;12.83;;;3.50;59.80;;;;;;5026979;28;20448;-41
2021/01/17 03:20:10;;;;;;;20.37;13.07;;;3.50;60.20;;;;;;5023961;28;20447;-42
2021/01/17 03:22:36;;;;;;;19.93;13.37;;;3.70;59.90;;;;;;5029253;28;20455;-41
2021/01/17 03:25:02;;;;;;;20.93;12.00;;;3.60;59.60;;;;;;5025464;28;20424;-42
2021/01/17 03:27:28;;;;;;;20.33;13.00;;;3.70;60.00;;;;;;5022783;28;20654;-42
2021/01/17 03:29:53;;;;;;;20.63;13.30;;;3.90;59.80;;;;;;5030723;28;20432;-42
2021/01/17 03:32:19;;;;;;;20.57;12.93;;;4.10;59.20;;;;;;5023971;28;20197;-41
2021/01/17 03:34:48;;;;;;;22.53;14.10;;;4.20;58.80;;;;;;5030203;28;20679;-42
2021/01/17 03:37:20;;;;;;;19.50;12.57;;;4.10;58.70;;;;;;5030856;28;20224;-41
2021/01/17 03:39:47;;;;;;;16.57;11.30;;;4.20;58.50;;;;;;5030800;28;20444;-41
2021/01/17 03:42:12;;;;;;;18.60;13.20;;;4.20;58.20;;;;;;5029921;28;20808;-41
2021/01/17 03:44:38;;;;;;;20.53;12.80;;;4.20;58.30;;;;;;5023587;28;20441;-42
2021/01/17 03:47:05;;;;;;;19.23;11.87;;;4.40;58.20;;;;;;5017031;28;20319;-41
2021/01/17 03:49:31;;;;;;;20.70;13.87;;;4.40;57.80;;;;;;5022956;28;20201;-41
2021/01/17 03:51:57;;;;;;;16.97;12.20;;;4.40;57.80;;;;;;5031536;28;20479;-42
2021/01/17 03:54:23;;;;;;;21.97;13.70;;;4.40;57.80;;;;;;5029854;28;20198;-41
2021/01/17 03:56:49;;;;;;;17.90;12.27;;;4.30;57.60;;;;;;5017844;28;20193;-41
2021/01/17 03:59:18;;;;;;;22.20;13.63;;;4.10;58.40;;;;;;5029509;28;20424;-42
2021/01/17 04:01:44;;;;;;;22.47;14.00;;;4.00;58.50;;;;;;5019180;28;20201;-43
2021/01/17 04:04:10;;;;;;;18.60;11.83;;;4.10;58.60;;;;;;5029541;28;20434;-41
2021/01/17 04:06:36;;;;;;;22.13;13.40;;;4.10;58.70;;;;;;5029266;28;20738;-42
2021/01/17 04:09:03;;;;;;;17.93;12.40;;;4.20;58.50;;;;;;5025334;28;20193;-41
2021/01/17 04:11:29;;;;;;;23.40;13.90;;;4.40;58.30;;;;;;5029706;28;20439;-41
2021/01/17 04:13:54;;;;;;;22.20;15.10;;;4.40;57.80;;;;;;5029574;28;20466;-42
2021/01/17 04:16:20;;;;;;;22.07;13.33;;;4.40;57.50;;;;;;5027737;28;20221;-41
2021/01/17 04:18:45;;;;;;;22.00;13.93;;;4.40;57.70;;;;;;5024839;28;20201;-41
2021/01/17 04:21:11;;;;;;;18.57;13.43;;;4.50;57.60;;;;;;5026121;28;20281;-41
2021/01/17 04:23:37;;;;;;;20.90;13.70;;;4.50;57.40;;;;;;5019890;28;20731;-41
2021/01/17 04:26:02;;;;;;;21.73;14.43;;;4.50;57.50;;;;;;5029042;28;20247;-42
2021/01/17 04:28:28;;;;;;;18.80;12.40;;;4.40;57.60;;;;;;5024671;28;20198;-42
2021/01/17 04:30:53;;;;;;;22.13;13.43;;;4.30;57.90;;;;;;5028197;28;20197;-41
2021/01/17 04:33:20;;;;;;;21.50;13.10;;;4.30;57.90;;;;;;5024920;28;20276;-42
2021/01/17 04:35:48;;;;;;;23.70;14.70;;;4.40;57.90;;;;;;5023743;28;20229;-42
2021/01/17 04:38:14;;;;;;;20.80;13.23;;;4.50;57.80;;;;;;5026386;28;20448;-42
2021/01/17 04:40:40;;;;;;;19.80;13.43;;;4.50;57.60;;;;;;5028618;28;20531;-42
2021/01/17 04:43:29;;;;;;;20.13;12.87;;;4.30;57.50;;;;;;5029374;28;20214;-42
2021/01/17 04:45:59;;;;;;;19.90;13.10;;;4.40;57.80;;;;;;5022296;28;20229;-42
2021/01/17 04:48:26;;;;;;;21.43;13.47;;;4.20;58.10;;;;;;5023830;28;20943;-42
2021/01/17 04:51:00;;;;;;;18.10;12.90;;;4.20;58.30;;;;;;5028040;28;20427;-42
2021/01/17 04:53:34;;;;;;;17.53;12.50;;;4.30;58.40;;;;;;5030838;28;20474;-42
2021/01/17 04:56:11;;;;;;;23.17;13.07;;;4.40;58.20;;;;;;5016985;28;20865;-41
2021/01/17 04:58:42;;;;;;;19.60;13.20;;;4.40;58.10;;;;;;5026953;28;20927;-42
2021/01/17 05:01:22;;;;;;;20.77;14.10;;;4.40;58.10;;;;;;5028756;28;20440;-42
2021/01/17 05:03:56;;;;;;;23.00;14.30;;;4.50;58.00;;;;;;5026695;28;20842;-41
2021/01/17 05:06:29;;;;;;;22.60;13.63;;;4.60;57.90;;;;;;5026866;28;20475;-42
2021/01/17 05:09:00;;;;;;;20.57;12.93;;;4.50;57.80;;;;;;5028658;28;20457;-41
2021/01/17 05:11:36;;;;;;;23.77;14.50;;;4.40;58.10;;;;;;5028660;28;20443;-42
2021/01/17 05:14:12;;;;;;;21.03;14.43;;;4.40;58.10;;;;;;5026268;28;20463;-42
2021/01/17 05:16:42;;;;;;;20.30;13.07;;;4.30;58.30;;;;;;5026776;28;20443;-42
2021/01/17 05:19:19;;;;;;;22.77;13.23;;;4.40;58.30;;;;;;5026984;28;20444;-42
2021/01/17 05:21:47;;;;;;;21.20;13.60;;;4.40;58.00;;;;;;5032658;28;20516;-42
2021/01/17 05:24:14;;;;;;;21.77;13.00;;;4.40;58.30;;;;;;5033436;28;20444;-41
2021/01/17 05:26:49;;;;;;;23.20;13.23;;;4.30;58.50;;;;;;5026439;28;20977;-42
2021/01/17 05:29:18;;;;;;;20.93;13.43;;;4.10;58.80;;;;;;5029175;28;20431;-42
2021/01/17 05:31:48;;;;;;;21.73;13.77;;;4.10;59.00;;;;;;5033678;28;20440;-41
2021/01/17 05:34:16;;;;;;;18.17;12.40;;;4.10;59.20;;;;;;5036305;28;20835;-41
2021/01/17 05:36:42;;;;;;;22.47;13.17;;;4.10;59.30;;;;;;5024898;28;20437;-42
2021/01/17 05:39:07;;;;;;;25.50;15.53;;;4.20;59.10;;;;;;5032553;28;20474;-42
2021/01/17 05:41:33;;;;;;;24.90;15.13;;;4.40;58.90;;;;;;5030335;28;20288;-42
2021/01/17 05:43:59;;;;;;;22.20;13.43;;;4.30;58.60;;;;;;5030501;28;20227;-42
2021/01/17 05:46:24;;;;;;;23.03;14.03;;;4.20;58.60;;;;;;5032705;28;20220;-42
2021/01/17 05:49:09;;;;;;;23.87;14.00;;;4.10;59.10;;;;;;5035030;28;20311;-42
2021/01/17 05:51:34;;;;;;;22.70;13.30;;;4.10;59.20;;;;;;5028317;28;20271;-42
2021/01/17 05:54:06;;;;;;;23.77;13.40;;;4.10;59.10;;;;;;5033482;28;20463;-42
2021/01/17 05:56:34;;;;;;;21.70;13.63;;;4.10;59.20;;;;;;5032988;28;20697;-42
2021/01/17 05:59:00;;;;;;;21.97;13.20;;;4.10;59.20;;;;;;5031722;28;20964;-42
2021/01/17 06:01:27;;;;;;;23.33;14.60;;;4.20;59.30;;;;;;5027191;28;20478;-42
2021/01/17 06:03:54;;;;;;;21.07;12.93;;;4.20;58.70;;;;;;5032621;28;20556;-42
2021/01/17 06:06:30;;;;;;;24.13;13.77;;;4.20;58.90;;;;;;5025670;28;20963;-42
2021/01/17 06:08:58;;;;;;;20.67;13.50;;;4.30;58.70;;;;;;5029987;28;20450;-42
2021/01/17 06:11:24;;;;;;;23.57;13.37;;;4.20;58.30;;;;;;5032374;28;20962;-42
2021/01/17 06:13:58;;;;;;;23.10;15.13;;;4.10;58.90;;;;;;5031374;28;20467;-42
2021/01/17 06:16:34;;;;;;;21.10;13.60;;;4.20;58.90;;;;;;5026399;28;20800;-42
2021/01/17 06:19:02;;;;;;;21.80;13.00;;;4.20;58.80;;;;;;5029167;28;21010;-42
2021/01/17 06:21:29;;;;;;;23.70;13.27;;;4.20;58.60;;;;;;5031799;28;20436;-41
2021/01/17 06:24:00;;;;;;;18.93;12.80;;;4.10;59.00;;;;;;5031851;28;20440;-42
2021/01/17 06:26:31;;;;;;;22.50;13.63;;;4.20;62.30;;;;;;5028542;28;20918;-42
2021/01/17 06:28:58;;;;;;;19.43;13.13;;;4.70;63.30;;;;;;5020641;28;20471;-42
2021/01/17 06:31:29;;;;;;;23.10;14.07;;;5.00;61.30;;;;;;5031348;28;20869;-42
2021/01/17 06:34:05;;;;;;;17.20;11.93;;;5.20;60.50;;;;;;5026132;28;20456;-42
2021/01/17 06:36:32;;;;;;;21.40;12.30;;;5.50;59.40;;;;;;5030466;28;20451;-42
2021/01/17 06:38:58;;;;;;;23.87;14.33;;;5.70;58.70;;;;;;5029125;28;20428;-42
2021/01/17 06:41:35;;;;;;;18.73;13.30;;;5.90;58.10;;;;;;5021023;28;20440;-42
2021/01/17 06:44:11;;;;;;;19.93;12.77;;;6.00;56.90;;;;;;5030227;28;20515;-42
2021/01/17 06:46:46;;;;;;;21.33;13.40;;;6.20;56.50;;;;;;5029647;28;20487;-42
2021/01/17 06:49:26;;;;;;;25.23;13.83;;;6.20;55.50;;;;;;5022447;28;20475;-42
2021/01/17 06:51:52;;;;;;;21.03;12.77;;;6.20;55.70;;;;;;5030183;28;20475;-42
2021/01/17 06:54:23;;;;;;;21.60;12.97;;;6.30;55.60;;;;;;5028611;28;20440;-43
2021/01/17 06:56:51;;;;;;;17.87;12.00;;;6.40;55.50;;;;;;5027443;28;20459;-42
2021/01/17 06:59:42;;;;;;;23.47;12.73;;;6.50;55.20;;;;;;5022832;28;20952;-42
2021/01/17 07:02:14;;;;;;;23.30;14.17;;;6.50;54.50;;;;;;5030709;28;20475;-43
2021/01/17 07:04:52;;;;;;;18.90;12.80;;;6.60;54.90;;;;;;5029490;28;20440;-42
2021/01/17 07:07:52;;;;;;;23.07;14.37;;;6.50;54.30;;;;;;5024148;28;21011;-42
2021/01/17 07:10:23;;;;;;;21.13;13.90;;;6.30;53.60;;;;;;5029847;28;20454;-42
2021/01/17 07:13:09;;;;;;;20.43;13.80;;;5.90;55.10;;;;;;5031808;28;20944;-42
2021/01/17 07:15:36;;;;;;;19.77;12.10;;;6.10;55.40;;;;;;5023156;28;20468;-42
2021/01/17 07:18:20;;;;;;;20.67;13.73;;;6.20;55.20;;;;;;5026253;28;20443;-42
2021/01/17 07:20:48;;;;;;;22.10;14.87;;;6.30;54.70;;;;;;5030650;28;20439;-43
2021/01/17 07:23:16;;;;;;;21.23;13.07;;;6.40;54.80;;;;;;5029643;28;20436;-43
2021/01/17 07:25:44;;;;;;;19.00;13.00;;;6.50;54.50;;;;;;5023889;28;20483;-41
2021/01/17 07:28:20;;;;;;;21.53;14.13;;;6.60;54.40;;;;;;5024148;28;20439;-42
2021/01/17 07:30:46;;;;;;;22.17;14.20;;;6.70;54.00;;;;;;5020451;28;20448;-42
2021/01/17 07:33:14;;;;;;;22.10;14.27;;;6.70;53.90;;;;;;5016819;28;20487;-42
2021/01/17 07:35:47;;;;;;;23.00;14.63;;;6.80;53.90;;;;;;5017266;28;20808;-42
2021/01/17 07:38:23;;;;;;;21.13;14.30;;;6.90;53.60;;;;;;5020915;28;20446;-42
2021/01/17 07:40:55;;;;;;;22.80;13.97;;;7.00;53.20;;;;;;5025095;28;20514;-42
2021/01/17 07:43:29;;;;;;;21.97;14.93;;;6.70;52.60;;;;;;5023851;28;20853;-42
2021/01/17 07:45:58;;;;;;;19.20;12.70;;;6.60;53.90;;;;;;5027653;28;20502;-42
2021/01/17 07:48:24;;;;;;;19.10;13.47;;;6.80;54.10;;;;;;5029225;28;20463;-41
2021/01/17 07:50:53;;;;;;;25.37;16.57;;;7.00;53.90;;;;;;5026914;28;20434;-42
2021/01/17 07:53:37;;;;;;;24.33;15.97;;;7.20;53.80;;;;;;5028914;28;20467;-43
2021/01/17 07:56:21;;;;;;;23.53;14.90;;;7.50;53.60;;;;;;5031280;28;20428;-43
2021/01/17 07:58:51;;;;;;;22.73;14.03;;;7.70;52.90;;;;;;5025035;28;20921;-42
2021/01/17 08:01:35;;;;;;;22.10;14.80;;;7.80;52.40;;;;;;5022985;28;20462;-43
2021/01/17 08:04:16;;;;;;;18.87;12.50;;;7.90;52.10;;;;;;5022317;28;20460;-43
2021/01/17 08:06:42;;;;;;;23.27;15.83;;;8.00;51.70;;;;;;5029283;28;20499;-42
2021/01/17 08:09:13;;;;;;;27.80;15.97;;;8.10;51.90;;;;;;5024930;28;20523;-43
2021/01/17 08:11:46;;;;;;;22.33;15.67;;;8.20;51.60;;;;;;5027160;28;20201;-42
2021/01/17 08:14:20;;;;;;;19.20;14.30;;;8.10;50.80;;;;;;5021626;28;20440;-43
2021/01/17 08:17:02;;;;;;;23.40;16.33;;;8.00;51.00;;;;;;5025605;28;20485;-42
2021/01/17 08:19:54;;;;;;;23.00;15.03;;;7.90;51.30;;;;;;5016995;28;20935;-43
2021/01/17 08:22:22;;;;;;;22.40;14.17;;;7.80;51.50;;;;;;5021398;28;20815;-42
2021/01/17 08:24:50;;;;;;;20.93;13.17;;;7.90;51.90;;;;;;5030986;28;20440;-42
2021/01/17 08:27:31;;;;;;;20.00;13.73;;;8.00;51.80;;;;;;5018182;28;20607;-42
2021/01/17 08:30:08;;;;;;;21.97;14.80;;;8.10;51.80;;;;;;5016924;28;20810;-42
2021/01/17 08:32:50;;;;;;;21.37;14.80;;;8.20;51.40;;;;;;5029961;28;21284;-42
2021/01/17 08:35:17;;;;;;;20.60;14.00;;;8.20;51.20;;;;;;5031000;28;20489;-42
2021/01/17 08:37:44;;;;;;;21.57;15.33;;;8.20;51.40;;;;;;5025915;28;20436;-42
2021/01/17 08:40:11;;;;;;;21.20;14.23;;;8.20;51.40;;;;;;5021163;28;20507;-42
2021/01/17 08:42:49;;;;;;;18.77;13.60;;;8.20;51.30;;;;;;5017349;28;20485;-42
2021/01/17 08:45:20;;;;;;;20.60;14.20;;;8.10;51.20;;;;;;5030635;28;20448;-42
2021/01/17 08:47:51;;;;;;;22.43;15.40;;;8.10;51.50;;;;;;5023850;28;20448;-42
2021/01/17 08:50:37;;;;;;;22.33;14.33;;;8.00;51.20;;;;;;5017041;28;20444;-42
2021/01/17 08:53:23;;;;;;;19.33;13.33;;;7.80;52.00;;;;;;5024189;28;20481;-42
2021/01/17 08:55:53;;;;;;;20.80;15.07;;;7.90;52.20;;;;;;5024078;28;20857;-42
2021/01/17 08:58:28;;;;;;;19.23;13.57;;;8.00;52.30;;;;;;5023781;28;20825;-42
2021/01/17 09:00:57;;;;;;;22.70;13.30;;;8.00;52.10;;;;;;5029928;28;20447;-42
2021/01/17 09:03:29;;;;;;;25.00;13.23;;;8.00;52.00;;;;;;5028766;28;20908;-42
2021/01/17 09:05:58;;;;;;;21.63;15.20;;;8.10;51.80;;;;;;5027259;28;20498;-42
2021/01/17 09:08:24;;;;;;;21.67;14.90;;;8.00;51.20;;;;;;5029135;28;20489;-42
2021/01/17 09:10:50;;;;;;;25.73;15.37;;;7.90;51.90;;;;;;5033865;28;20849;-42
2021/01/17 09:13:23;;;;;;;18.40;12.57;;;8.10;52.00;;;;;;5032696;28;20439;-42
2021/01/17 09:15:58;;;;;;;25.37;16.33;;;8.20;51.90;;;;;;5023703;28;20452;-42
2021/01/17 09:18:25;;;;;;;21.60;15.47;;;8.30;51.60;;;;;;5032587;28;20431;-42
2021/01/17 09:20:52;;;;;;;25.07;16.73;;;8.40;51.40;;;;;;5020588;28;20519;-42
2021/01/17 09:23:19;;;;;;;24.43;15.40;;;8.60;51.50;;;;;;5032841;28;20427;-42
2021/01/17 09:25:47;;;;;;;21.67;15.17;;;8.60;50.80;;;;;;5033720;28;20516;-42
2021/01/17 09:28:14;;;;;;;23.63;15.60;;;8.50;50.90;;;;;;5020064;28;20502;-42
2021/01/17 09:30:50;;;;;;;24.97;14.33;;;8.50;51.30;;;;;;5020919;28;20469;-42
2021/01/17 09:33:17;;;;;;;20.27;13.83;;;8.60;51.20;;;;;;5021035;28;20493;-42
2021/01/17 09:35:43;;;;;;;20.53;14.83;;;8.60;51.00;;;;;;5025975;28;20444;-42
2021/01/17 09:38:17;;;;;;;28.47;16.43;;;8.50;50.90;;;;;;5033699;28;20800;-42
2021/01/17 09:40:45;;;;;;;22.20;16.37;;;8.50;51.20;;;;;;5031830;28;20439;-42
2021/01/17 09:43:11;;;;;;;22.50;15.00;;;8.60;51.10;;;;;;5032760;28;20446;-42
2021/01/17 09:45:37;;;;;;;24.10;15.23;;;8.60;50.80;;;;;;5031399;28;20974;-42
2021/01/17 09:48:04;;;;;;;23.83;16.67;;;8.60;50.80;;;;;;5030074;28;20498;-42
2021/01/17 09:50:36;;;;;;;21.73;15.80;;;8.50;50.60;;;;;;5021951;28;20447;-42
2021/01/17 09:53:06;;;;;;;21.40;15.77;;;8.40;50.70;;;;;;5028960;28;20470;-42
2021/01/17 09:55:33;;;;;;;22.83;15.37;;;8.20;51.10;;;;;;5031811;28;20478;-42
2021/01/17 09:58:05;;;;;;;22.60;15.00;;;8.10;51.60;;;;;;5022408;28;20451;-42
2021/01/17 10:00:31;;;;;;;21.33;14.70;;;8.00;51.90;;;;;;5028507;28;20459;-42
2021/01/17 10:02:57;;;;;;;24.20;15.00;;;7.90;52.20;;;;;;5029004;28;20497;-42
2021/01/17 10:05:29;;;;;;;31.80;16.20;;;7.80;52.40;;;;;;5021979;28;20197;-42
2021/01/17 10:08:17;;;;;;;22.80;15.17;;;7.80;53.10;;;;;;5030247;28;20444;-41
2021/01/17 10:10:46;;;;;;;24.27;17.33;;;7.80;53.00;;;;;;5025795;28;20523;-41
2021/01/17 10:13:12;;;;;;;25.73;18.83;;;7.70;53.50;;;;;;5032377;28;20428;-41
2021/01/17 10:15:41;;;;;;;22.77;16.47;;;7.40;53.60;;;;;;5031824;28;20489;-41
2021/01/17 10:18:07;;;;;;;27.83;16.23;;;7.40;53.90;;;;;;5031002;28;20238;-41
2021/01/17 10:20:38;;;;;;;26.80;16.77;;;7.50;53.90;;;;;;5023894;28;20452;-41
2021/01/17 10:23:09;;;;;;;21.77;15.17;;;7.40;54.10;;;;;;5026601;28;20466;-41
2021/01/17 10:25:36;;;;;;;23.00;16.53;;;7.40;54.60;;;;;;5026701;28;20480;-41
2021/01/17 10:28:11;;;;;;;28.30;16.07;;;7.40;54.60;;;;;;5029578;28;20465;-42
2021/01/17 10:30:40;;;;;;;25.37;16.50;;;7.40;54.60;;;;;;5027464;28;20473;-41
2021/01/17 10:33:11;;;;;;;24.87;17.00;;;7.50;54.70;;;;;;5029921;28;20462;-41
2021/01/17 10:35:43;;;;;;;24.33;16.40;;;7.50;54.70;;;;;;5028920;28;20451;-41
2021/01/17 10:38:10;;;;;;;25.83;15.87;;;7.50;54.70;;;;;;5023590;28;20455;-41
2021/01/17 10:40:36;;;;;;;26.90;17.40;;;7.50;54.70;;;;;;5023884;28;20518;-41
2021/01/17 10:43:23;;;;;;;26.70;17.93;;;7.50;54.60;;;;;;5026077;28;20428;-41
2021/01/17 10:46:00;;;;;;;25.23;16.20;;;7.50;54.80;;;;;;5024167;28;20467;-41
2021/01/17 10:48:26;;;;;;;26.67;16.97;;;7.50;54.90;;;;;;5030094;28;20451;-41
2021/01/17 10:51:03;;;;;;;26.50;17.47;;;7.50;55.00;;;;;;5027156;28;21652;-41
2021/01/17 10:53:49;;;;;;;28.63;17.10;;;7.50;55.20;;;;;;5030405;28;20237;-42
2021/01/17 10:56:16;;;;;;;26.40;16.73;;;7.50;55.20;;;;;;5030342;28;20537;-41
2021/01/17 10:58:43;;;;;;;28.73;16.90;;;7.50;55.40;;;;;;5024263;28;20439;-41
2021/01/17 11:01:09;;;;;;;29.70;18.60;;;7.50;55.80;;;;;;5017628;28;20444;-41
2021/01/17 11:03:45;;;;;;;25.83;17.07;;;7.50;55.90;;;;;;5030100;28;20498;-41
2021/01/17 11:06:16;;;;;;;31.20;18.37;;;7.50;55.80;;;;;;5030828;28;20977;-41
2021/01/17 11:08:52;;;;;;;23.77;17.20;;;7.50;55.70;;;;;;5026434;28;21022;-41
2021/01/17 11:11:18;;;;;;;26.30;17.90;;;7.50;55.70;;;;;;5030734;28;20480;-41
2021/01/17 11:13:54;;;;;;;21.80;15.47;;;7.50;55.70;;;;;;5029230;28;20854;-42
2021/01/17 11:16:39;;;;;;;24.00;16.03;;;7.50;56.00;;;;;;5029695;28;20435;-41
2021/01/17 11:19:06;;;;;;;27.03;17.67;;;7.50;56.10;;;;;;5022794;28;20443;-42
2021/01/17 11:21:32;;;;;;;25.50;16.17;;;7.50;56.30;;;;;;5029642;28;20457;-41
2021/01/17 11:23:59;;;;;;;27.80;17.30;;;7.50;56.20;;;;;;5029934;28;20432;-41
2021/01/17 11:26:26;;;;;;;25.20;17.20;;;7.50;56.20;;;;;;5028573;28;20494;-42
2021/01/17 11:28:53;;;;;;;25.30;17.03;;;7.50;56.30;;;;;;5029756;28;20527;-42
2021/01/17 11:31:20;;;;;;;26.80;18.20;;;7.50;56.40;;;;;;5023276;28;20935;-42
2021/01/17 11:33:47;;;;;;;26.30;16.90;;;7.60;56.40;;;;;;5026288;28;20448;-41
2021/01/17 11:36:21;;;;;;;25.70;18.30;;;7.70;56.40;;;;;;5027290;28;20448;-42
2021/01/17 11:38:54;;;;;;;25.97;17.53;;;7.70;56.10;;;;;;5018113;28;20522;-41
2021/01/17 11:41:22;;;;;;;28.57;19.83;;;7.70;56.00;;;;;;5025299;28;20436;-41
2021/01/17 11:43:49;;;;;;;23.10;16.80;;;7.70;56.40;;;;;;5024784;28;20439;-42
2021/01/17 11:46:15;;;;;;;27.27;17.43;;;7.70;56.60;;;;;;5025610;28;20506;-41
2021/01/17 11:48:42;;;;;;;26.57;17.50;;;7.70;56.90;;;;;;5018816;28;20433;-41
2021/01/17 11:51:09;;;;;;;24.97;17.53;;;7.70;57.00;;;;;;5029505;28;20455;-41
2021/01/17 11:53:35;;;;;;;27.60;18.00;;;7.70;57.00;;;;;;5027056;28;20464;-42
2021/01/17 11:56:02;;;;;;;24.00;16.07;;;7.70;57.00;;;;;;5029957;28;20427;-41
2021/01/17 11:58:37;;;;;;;32.57;24.27;;;7.80;57.10;;;;;;5026519;28;20440;-41
2021/01/17 12:01:02;;;;;;;37.00;25.47;;;7.80;56.90;;;;;;5029597;28;20447;-42
2021/01/17 12:03:57;;;;;;;33.50;23.67;;;7.70;57.10;;;;;;5028374;28;20436;-42
2021/01/17 12:06:23;;;;;;;31.43;19.73;;;7.70;57.30;;;;;;5028377;28;20688;-42
2021/01/17 12:08:53;;;;;;;41.43;26.30;;;7.70;57.20;;;;;;5027699;28;20490;-42
2021/01/17 12:11:41;;;;;;;41.80;26.20;;;7.70;57.20;;;;;;5029674;28;20690;-42
2021/01/17 12:14:10;;;;;;;29.27;19.90;;;7.70;57.40;;;;;;5017299;28;20448;-42
2021/01/17 12:16:49;;;;;;;28.60;17.67;;;7.70;57.40;;;;;;5017914;28;20457;-42
2021/01/17 12:19:15;;;;;;;24.37;16.17;;;7.60;57.40;;;;;;5024241;28;20778;-42
2021/01/17 12:21:42;;;;;;;26.67;17.60;;;7.70;57.40;;;;;;5022069;28;20540;-42
2021/01/17 12:24:10;;;;;;;21.73;18.03;;;7.70;57.50;;;;;;5020070;28;20428;-41
2021/01/17 12:26:37;;;;;;;24.53;16.67;;;7.70;57.50;;;;;;5025189;28;20843;-41
2021/01/17 12:29:03;;;;;;;22.97;15.83;;;7.70;57.50;;;;;;5029054;28;20450;-42
2021/01/17 12:31:29;;;;;;;24.20;16.40;;;7.70;57.50;;;;;;5022782;28;20497;-42
2021/01/17 12:33:56;;;;;;;23.37;15.37;;;7.70;57.60;;;;;;5028838;28;20424;-42
2021/01/17 12:36:24;;;;;;;19.23;12.80;;;7.70;57.60;;;;;;5028075;28;20811;-42
2021/01/17 12:38:50;;;;;;;23.73;15.50;;;7.80;58.50;;;;;;5022901;28;20443;-42
2021/01/17 12:41:18;;;;;;;21.20;14.33;;;8.10;59.00;;;;;;5023197;28;21263;-42
2021/01/17 12:43:44;;;;;;;23.00;14.37;;;8.50;58.50;;;;;;5018770;28;20472;-42
2021/01/17 12:46:11;;;;;;;19.87;14.10;;;8.70;57.40;;;;;;5016439;28;20490;-42
2021/01/17 12:48:38;;;;;;;20.93;14.60;;;8.90;56.50;;;;;;5020270;28;20538;-42